DXB weather

Dubai International Airport
Dubai, Dubai Emirate, United Arab Emirates

Public forecast

Using degrees Celsius for public forecast. Weather courtesy of forecast.io.

METAR (pilot weather report)

Retrieved 2019/04/23 09:00 UTC (39 minutes ago):

OMDB 230900Z 29012KT 250V340 CAVOK 29/17 Q1012 NOSIG

TAF (pilot weather forecast)

Retrieved 2019/04/23 06:00 UTC (4 hours ago):

TAF OMDB 230458Z 2306/2412 30015KT CAVOK PROB30 2320/2403 24005KT